sensor_id;sensor_type;location;lat;lon;timestamp;pressure;altitude;pressure_sealevel;temperature;humidity
58739;BME280;44512;53.046;18.604;2022-07-29T00:07:28;102229.58;;;19.91;53.60
58739;BME280;44512;53.046;18.604;2022-07-29T00:17:56;102226.27;;;19.83;53.96
58739;BME280;44512;53.046;18.604;2022-07-29T00:28:25;102236.93;;;19.72;54.41
58739;BME280;44512;53.046;18.604;2022-07-29T00:38:53;102246.97;;;19.60;54.57
58739;BME280;44512;53.046;18.604;2022-07-29T00:49:21;102245.96;;;19.48;54.81
58739;BME280;44512;53.046;18.604;2022-07-29T00:59:50;102243.93;;;19.37;55.09
58739;BME280;44512;53.046;18.604;2022-07-29T01:10:19;102241.90;;;19.25;55.40
58739;BME280;44512;53.046;18.604;2022-07-29T01:31:20;102244.77;;;19.06;56.22
58739;BME280;44512;53.046;18.604;2022-07-29T01:41:55;102239.32;;;18.99;56.59
58739;BME280;44512;53.046;18.604;2022-07-29T01:52:21;102248.44;;;18.93;56.90
58739;BME280;44512;53.046;18.604;2022-07-29T02:02:43;102238.96;;;18.89;57.24
58739;BME280;44512;53.046;18.604;2022-07-29T02:13:09;102233.05;;;18.85;57.45
58739;BME280;44512;53.046;18.604;2022-07-29T02:23:38;102226.77;;;18.78;57.60
58739;BME280;44512;53.046;18.604;2022-07-29T02:34:08;102232.30;;;18.71;57.69
58739;BME280;44512;53.046;18.604;2022-07-29T02:44:34;102223.44;;;18.63;57.92
58739;BME280;44512;53.046;18.604;2022-07-29T02:55:10;102221.76;;;18.55;58.04
58739;BME280;44512;53.046;18.604;2022-07-29T03:05:31;102214.41;;;18.49;58.23
58739;BME280;44512;53.046;18.604;2022-07-29T03:15:59;102215.89;;;18.45;58.40
58739;BME280;44512;53.046;18.604;2022-07-29T03:26:27;102229.00;;;18.43;58.55
58739;BME280;44512;53.046;18.604;2022-07-29T03:36:55;102234.05;;;18.39;58.60
58739;BME280;44512;53.046;18.604;2022-07-29T03:47:27;102238.09;;;18.37;58.69
58739;BME280;44512;53.046;18.604;2022-07-29T03:57:52;102246.72;;;18.34;58.79
58739;BME280;44512;53.046;18.604;2022-07-29T04:08:20;102228.60;;;18.33;58.89
58739;BME280;44512;53.046;18.604;2022-07-29T04:18:48;102231.96;;;18.35;58.95
58739;BME280;44512;53.046;18.604;2022-07-29T04:29:17;102231.77;;;18.36;59.14
58739;BME280;44512;53.046;18.604;2022-07-29T04:39:45;102234.89;;;18.40;59.27
58739;BME280;44512;53.046;18.604;2022-07-29T04:50:13;102236.15;;;18.44;59.47
58739;BME280;44512;53.046;18.604;2022-07-29T05:00:42;102229.19;;;18.48;59.58
58739;BME280;44512;53.046;18.604;2022-07-29T05:11:10;102237.80;;;18.58;59.32
58739;BME280;44512;53.046;18.604;2022-07-29T05:21:38;102247.48;;;18.67;59.15
58739;BME280;44512;53.046;18.604;2022-07-29T05:32:07;102246.20;;;18.77;59.01
58739;BME280;44512;53.046;18.604;2022-07-29T05:42:36;102249.78;;;18.77;59.03
58739;BME280;44512;53.046;18.604;2022-07-29T05:53:04;102239.66;;;18.78;59.39
58739;BME280;44512;53.046;18.604;2022-07-29T06:03:32;102242.77;;;18.81;59.84
58739;BME280;44512;53.046;18.604;2022-07-29T06:14:00;102247.00;;;18.84;60.24
58739;BME280;44512;53.046;18.604;2022-07-29T06:24:29;102241.88;;;18.94;60.21
58739;BME280;44512;53.046;18.604;2022-07-29T06:34:57;102235.70;;;19.05;60.29
58739;BME280;44512;53.046;18.604;2022-07-29T06:45:25;102238.38;;;19.18;59.58
58739;BME280;44512;53.046;18.604;2022-07-29T06:55:54;102239.94;;;19.33;59.38
58739;BME280;44512;53.046;18.604;2022-07-29T07:06:22;102233.93;;;19.49;59.08
58739;BME280;44512;53.046;18.604;2022-07-29T07:16:50;102221.78;;;19.63;58.59
58739;BME280;44512;53.046;18.604;2022-07-29T07:27:19;102223.35;;;19.77;58.07
58739;BME280;44512;53.046;18.604;2022-07-29T07:37:47;102236.52;;;19.94;56.88
58739;BME280;44512;53.046;18.604;2022-07-29T07:48:16;102219.06;;;20.07;56.02
58739;BME280;44512;53.046;18.604;2022-07-29T07:58:44;102237.30;;;20.19;55.58
58739;BME280;44512;53.046;18.604;2022-07-29T08:09:12;102220.20;;;20.36;54.68
58739;BME280;44512;53.046;18.604;2022-07-29T08:19:40;102220.48;;;20.52;52.86
58739;BME280;44512;53.046;18.604;2022-07-29T08:30:09;102218.38;;;20.66;51.37
58739;BME280;44512;53.046;18.604;2022-07-29T08:40:37;102224.11;;;20.83;50.50
58739;BME280;44512;53.046;18.604;2022-07-29T08:51:07;102218.40;;;20.96;50.57
58739;BME280;44512;53.046;18.604;2022-07-29T09:01:37;102220.73;;;21.11;49.05
58739;BME280;44512;53.046;18.604;2022-07-29T09:12:03;102212.87;;;21.26;48.24
58739;BME280;44512;53.046;18.604;2022-07-29T09:22:31;102214.13;;;21.42;46.56
58739;BME280;44512;53.046;18.604;2022-07-29T09:33:01;102206.01;;;21.59;44.50
58739;BME280;44512;53.046;18.604;2022-07-29T09:43:27;102198.48;;;21.78;42.25
58739;BME280;44512;53.046;18.604;2022-07-29T09:53:56;102196.45;;;21.97;42.92
58739;BME280;44512;53.046;18.604;2022-07-29T10:04:24;102191.12;;;22.07;42.18
58739;BME280;44512;53.046;18.604;2022-07-29T10:14:53;102190.08;;;22.20;42.09
58739;BME280;44512;53.046;18.604;2022-07-29T10:25:21;102188.27;;;22.25;41.83
58739;BME280;44512;53.046;18.604;2022-07-29T11:01:58;102170.32;;;22.51;39.73
58739;BME280;44512;53.046;18.604;2022-07-29T11:22:55;102167.58;;;22.80;39.32
58739;BME280;44512;53.046;18.604;2022-07-29T11:33:32;102167.55;;;22.92;38.45
58739;BME280;44512;53.046;18.604;2022-07-29T11:43:58;102157.44;;;22.97;38.25
58739;BME280;44512;53.046;18.604;2022-07-29T11:54:32;102168.56;;;23.02;38.22
58739;BME280;44512;53.046;18.604;2022-07-29T12:04:50;102157.35;;;23.09;38.67
58739;BME280;44512;53.046;18.604;2022-07-29T12:15:18;102152.52;;;23.16;38.45
58739;BME280;44512;53.046;18.604;2022-07-29T12:25:46;102144.90;;;23.23;38.32
58739;BME280;44512;53.046;18.604;2022-07-29T12:36:13;102137.88;;;23.32;39.83
58739;BME280;44512;53.046;18.604;2022-07-29T12:46:42;102130.31;;;23.45;39.40
58739;BME280;44512;53.046;18.604;2022-07-29T12:57:10;102121.42;;;23.59;38.00
58739;BME280;44512;53.046;18.604;2022-07-29T13:07:39;102116.22;;;23.80;37.21
58739;BME280;44512;53.046;18.604;2022-07-29T13:28:35;102108.72;;;24.19;35.46
58739;BME280;44512;53.046;18.604;2022-07-29T13:39:03;102084.23;;;24.33;33.50
58739;BME280;44512;53.046;18.604;2022-07-29T13:49:32;102084.44;;;24.48;34.82
58739;BME280;44512;53.046;18.604;2022-07-29T14:00:00;102068.26;;;24.62;34.98
58739;BME280;44512;53.046;18.604;2022-07-29T14:10:28;102069.55;;;24.81;33.26
58739;BME280;44512;53.046;18.604;2022-07-29T14:20:57;102049.19;;;24.98;32.60
58739;BME280;44512;53.046;18.604;2022-07-29T14:31:25;102050.48;;;25.22;31.86
58739;BME280;44512;53.046;18.604;2022-07-29T14:41:53;102042.33;;;25.48;31.58
58739;BME280;44512;53.046;18.604;2022-07-29T14:52:22;102037.53;;;25.75;30.64
58739;BME280;44512;53.046;18.604;2022-07-29T15:02:50;102025.12;;;25.98;29.48
58739;BME280;44512;53.046;18.604;2022-07-29T15:13:18;102024.91;;;26.25;29.39
58739;BME280;44512;53.046;18.604;2022-07-29T15:23:46;102020.25;;;26.46;29.19
58739;BME280;44512;53.046;18.604;2022-07-29T15:34:15;102007.21;;;26.72;29.00
58739;BME280;44512;53.046;18.604;2022-07-29T15:44:43;102002.22;;;26.99;27.93
58739;BME280;44512;53.046;18.604;2022-07-29T15:55:12;101993.88;;;27.05;28.01
58739;BME280;44512;53.046;18.604;2022-07-29T16:05:40;101989.16;;;26.90;29.21
58739;BME280;44512;53.046;18.604;2022-07-29T16:16:08;101974.98;;;26.86;33.43
58739;BME280;44512;53.046;18.604;2022-07-29T16:26:36;101980.54;;;26.96;32.68
58739;BME280;44512;53.046;18.604;2022-07-29T16:37:05;101978.56;;;27.22;30.56
58739;BME280;44512;53.046;18.604;2022-07-29T16:47:33;101983.15;;;27.63;28.91
58739;BME280;44512;53.046;18.604;2022-07-29T16:58:02;101986.93;;;27.92;27.50
58739;BME280;44512;53.046;18.604;2022-07-29T17:08:30;101986.88;;;28.02;26.74
58739;BME280;44512;53.046;18.604;2022-07-29T17:18:58;101981.38;;;27.92;26.76
58739;BME280;44512;53.046;18.604;2022-07-29T17:29:26;101970.34;;;27.67;26.42
58739;BME280;44512;53.046;18.604;2022-07-29T17:39:55;101976.27;;;27.45;26.39
58739;BME280;44512;53.046;18.604;2022-07-29T17:50:23;101988.84;;;27.22;27.33
58739;BME280;44512;53.046;18.604;2022-07-29T18:00:52;101988.86;;;27.01;28.57
58739;BME280;44512;53.046;18.604;2022-07-29T18:11:20;101972.51;;;26.80;29.58
58739;BME280;44512;53.046;18.604;2022-07-29T18:21:48;101987.77;;;26.57;30.37
58739;BME280;44512;53.046;18.604;2022-07-29T18:32:16;101983.87;;;26.37;31.01
58739;BME280;44512;53.046;18.604;2022-07-29T18:42:45;102000.74;;;26.20;31.62
58739;BME280;44512;53.046;18.604;2022-07-29T18:53:13;101996.57;;;26.03;32.07
58739;BME280;44512;53.046;18.604;2022-07-29T19:03:41;102000.09;;;25.83;32.24
58739;BME280;44512;53.046;18.604;2022-07-29T19:14:10;101999.16;;;25.62;32.37
58739;BME280;44512;53.046;18.604;2022-07-29T19:24:39;102007.69;;;25.45;32.47
58739;BME280;44512;53.046;18.604;2022-07-29T19:35:06;102014.49;;;25.27;32.62
58739;BME280;44512;53.046;18.604;2022-07-29T19:45:35;102012.18;;;25.09;32.94
58739;BME280;44512;53.046;18.604;2022-07-29T19:56:03;102007.85;;;24.91;33.17
58739;BME280;44512;53.046;18.604;2022-07-29T20:06:31;102009.10;;;24.73;33.45
58739;BME280;44512;53.046;18.604;2022-07-29T20:17:00;102021.71;;;24.59;33.69
58739;BME280;44512;53.046;18.604;2022-07-29T20:27:28;102023.23;;;24.45;33.88
58739;BME280;44512;53.046;18.604;2022-07-29T20:37:56;102023.64;;;24.31;34.11
58739;BME280;44512;53.046;18.604;2022-07-29T20:48:25;102026.57;;;24.20;34.47
58739;BME280;44512;53.046;18.604;2022-07-29T20:58:53;102032.99;;;24.03;34.90
58739;BME280;44512;53.046;18.604;2022-07-29T21:09:21;102021.52;;;23.89;35.36
58739;BME280;44512;53.046;18.604;2022-07-29T21:19:50;102010.53;;;23.73;35.81
58739;BME280;44512;53.046;18.604;2022-07-29T21:30:19;102017.23;;;23.60;36.48
58739;BME280;44512;53.046;18.604;2022-07-29T21:40:48;102017.03;;;23.45;37.20
58739;BME280;44512;53.046;18.604;2022-07-29T21:51:15;102009.63;;;23.28;38.02
58739;BME280;44512;53.046;18.604;2022-07-29T22:01:43;102014.36;;;23.11;38.82
58739;BME280;44512;53.046;18.604;2022-07-29T22:12:11;102005.01;;;22.95;39.43
58739;BME280;44512;53.046;18.604;2022-07-29T22:22:40;101996.09;;;22.76;39.84
58739;BME280;44512;53.046;18.604;2022-07-29T22:33:08;101990.33;;;22.61;40.09
58739;BME280;44512;53.046;18.604;2022-07-29T22:43:39;101985.12;;;22.48;40.20
58739;BME280;44512;53.046;18.604;2022-07-29T22:54:04;101989.30;;;22.33;40.22
58739;BME280;44512;53.046;18.604;2022-07-29T23:04:33;101993.45;;;22.19;40.18
58739;BME280;44512;53.046;18.604;2022-07-29T23:15:01;101983.77;;;22.05;40.27
58739;BME280;44512;53.046;18.604;2022-07-29T23:25:30;101982.38;;;21.91;40.38
58739;BME280;44512;53.046;18.604;2022-07-29T23:35:58;101984.00;;;21.75;40.52
58739;BME280;44512;53.046;18.604;2022-07-29T23:46:26;101970.74;;;21.60;40.69
58739;BME280;44512;53.046;18.604;2022-07-29T23:56:54;101955.81;;;21.44;40.88
